sensor_id;sensor_type;location;lat;lon;timestamp;temperature;humidity
15103;DHT22;7652;53.584;9.998;2023-03-04T00:02:02;7.00;99.90
15103;DHT22;7652;53.584;9.998;2023-03-04T00:05:06;7.00;99.90
15103;DHT22;7652;53.584;9.998;2023-03-04T00:08:09;6.90;99.90
15103;DHT22;7652;53.584;9.998;2023-03-04T00:11:13;7.00;99.90
15103;DHT22;7652;53.584;9.998;2023-03-04T00:14:16;7.00;99.90
15103;DHT22;7652;53.584;9.998;2023-03-04T00:17:20;7.00;99.90
15103;DHT22;7652;53.584;9.998;2023-03-04T00:20:23;7.10;99.90
15103;DHT22;7652;53.584;9.998;2023-03-04T00:23:26;7.00;99.90
15103;DHT22;7652;53.584;9.998;2023-03-04T00:26:30;7.10;99.90
15103;DHT22;7652;53.584;9.998;2023-03-04T00:29:33;7.10;99.90
15103;DHT22;7652;53.584;9.998;2023-03-04T00:32:36;7.10;99.90
15103;DHT22;7652;53.584;9.998;2023-03-04T00:35:39;7.20;99.90
15103;DHT22;7652;53.584;9.998;2023-03-04T00:38:42;7.20;99.90
15103;DHT22;7652;53.584;9.998;2023-03-04T00:41:46;7.20;99.90
15103;DHT22;7652;53.584;9.998;2023-03-04T00:44:49;7.20;99.90
15103;DHT22;7652;53.584;9.998;2023-03-04T00:47:53;7.10;99.90
15103;DHT22;7652;53.584;9.998;2023-03-04T00:50:56;7.20;99.90
15103;DHT22;7652;53.584;9.998;2023-03-04T00:53:59;7.10;99.90
15103;DHT22;7652;53.584;9.998;2023-03-04T00:57:03;7.10;99.90
15103;DHT22;7652;53.584;9.998;2023-03-04T01:00:07;7.20;99.90
15103;DHT22;7652;53.584;9.998;2023-03-04T01:03:10;7.10;99.90
15103;DHT22;7652;53.584;9.998;2023-03-04T01:06:13;7.10;99.90
15103;DHT22;7652;53.584;9.998;2023-03-04T01:09:16;7.10;99.90
15103;DHT22;7652;53.584;9.998;2023-03-04T01:12:20;7.20;99.90
15103;DHT22;7652;53.584;9.998;2023-03-04T01:15:23;7.10;99.90
15103;DHT22;7652;53.584;9.998;2023-03-04T01:18:26;7.10;99.90
15103;DHT22;7652;53.584;9.998;2023-03-04T01:21:29;7.20;99.90
15103;DHT22;7652;53.584;9.998;2023-03-04T01:24:32;7.20;99.90
15103;DHT22;7652;53.584;9.998;2023-03-04T01:27:37;7.20;99.90
15103;DHT22;7652;53.584;9.998;2023-03-04T01:30:40;7.20;99.90
15103;DHT22;7652;53.584;9.998;2023-03-04T01:33:43;7.20;99.90
15103;DHT22;7652;53.584;9.998;2023-03-04T01:36:46;7.20;99.90
15103;DHT22;7652;53.584;9.998;2023-03-04T01:39:49;7.10;99.90
15103;DHT22;7652;53.584;9.998;2023-03-04T01:42:53;7.20;99.90
15103;DHT22;7652;53.584;9.998;2023-03-04T01:45:57;7.20;99.90
15103;DHT22;7652;53.584;9.998;2023-03-04T01:49:00;7.20;99.90
15103;DHT22;7652;53.584;9.998;2023-03-04T01:52:04;7.20;99.90
15103;DHT22;7652;53.584;9.998;2023-03-04T01:55:13;7.20;99.90
15103;DHT22;7652;53.584;9.998;2023-03-04T01:58:18;7.20;99.90
15103;DHT22;7652;53.584;9.998;2023-03-04T02:01:21;7.20;99.90
15103;DHT22;7652;53.584;9.998;2023-03-04T02:04:26;7.20;99.90
15103;DHT22;7652;53.584;9.998;2023-03-04T02:07:30;7.20;99.90
15103;DHT22;7652;53.584;9.998;2023-03-04T02:10:33;7.20;99.90
15103;DHT22;7652;53.584;9.998;2023-03-04T02:13:37;7.20;99.90
15103;DHT22;7652;53.584;9.998;2023-03-04T02:16:41;7.10;99.90
15103;DHT22;7652;53.584;9.998;2023-03-04T02:19:49;7.20;99.90
15103;DHT22;7652;53.584;9.998;2023-03-04T02:23:02;7.20;99.90
15103;DHT22;7652;53.584;9.998;2023-03-04T02:26:14;7.10;99.90
15103;DHT22;7652;53.584;9.998;2023-03-04T02:29:17;7.20;99.90
15103;DHT22;7652;53.584;9.998;2023-03-04T02:32:21;7.10;99.90
15103;DHT22;7652;53.584;9.998;2023-03-04T02:35:24;7.10;99.90
15103;DHT22;7652;53.584;9.998;2023-03-04T02:38:27;7.20;99.90
15103;DHT22;7652;53.584;9.998;2023-03-04T02:41:32;7.20;99.90
15103;DHT22;7652;53.584;9.998;2023-03-04T02:44:36;7.20;99.90
15103;DHT22;7652;53.584;9.998;2023-03-04T02:47:40;7.20;99.90
15103;DHT22;7652;53.584;9.998;2023-03-04T02:50:44;7.20;99.90
15103;DHT22;7652;53.584;9.998;2023-03-04T02:53:48;7.20;99.90
15103;DHT22;7652;53.584;9.998;2023-03-04T02:56:55;7.20;99.90
15103;DHT22;7652;53.584;9.998;2023-03-04T02:59:58;7.20;99.90
15103;DHT22;7652;53.584;9.998;2023-03-04T03:03:02;7.20;99.90
15103;DHT22;7652;53.584;9.998;2023-03-04T03:06:05;7.20;99.90
15103;DHT22;7652;53.584;9.998;2023-03-04T03:09:08;7.20;99.90
15103;DHT22;7652;53.584;9.998;2023-03-04T03:12:12;7.20;99.90
15103;DHT22;7652;53.584;9.998;2023-03-04T03:15:16;7.10;99.90
15103;DHT22;7652;53.584;9.998;2023-03-04T03:18:19;7.10;99.90
15103;DHT22;7652;53.584;9.998;2023-03-04T03:21:22;7.00;99.90
15103;DHT22;7652;53.584;9.998;2023-03-04T03:24:25;7.10;99.90
15103;DHT22;7652;53.584;9.998;2023-03-04T03:27:30;7.20;99.90
15103;DHT22;7652;53.584;9.998;2023-03-04T03:30:33;7.20;99.90
15103;DHT22;7652;53.584;9.998;2023-03-04T03:33:36;7.20;99.90
15103;DHT22;7652;53.584;9.998;2023-03-04T03:36:39;7.20;99.90
15103;DHT22;7652;53.584;9.998;2023-03-04T03:39:42;7.20;99.90
15103;DHT22;7652;53.584;9.998;2023-03-04T03:42:46;7.10;99.90
15103;DHT22;7652;53.584;9.998;2023-03-04T03:45:49;7.20;99.90
15103;DHT22;7652;53.584;9.998;2023-03-04T03:48:53;7.20;99.90
15103;DHT22;7652;53.584;9.998;2023-03-04T03:51:56;7.10;99.90
15103;DHT22;7652;53.584;9.998;2023-03-04T03:54:59;7.10;99.90
15103;DHT22;7652;53.584;9.998;2023-03-04T03:58:04;7.00;99.90
15103;DHT22;7652;53.584;9.998;2023-03-04T04:01:09;7.00;99.90
15103;DHT22;7652;53.584;9.998;2023-03-04T04:04:12;7.00;99.90
15103;DHT22;7652;53.584;9.998;2023-03-04T04:07:16;7.00;99.90
15103;DHT22;7652;53.584;9.998;2023-03-04T04:10:19;7.10;99.90
15103;DHT22;7652;53.584;9.998;2023-03-04T04:13:23;7.10;99.90
15103;DHT22;7652;53.584;9.998;2023-03-04T04:16:26;7.00;99.90
15103;DHT22;7652;53.584;9.998;2023-03-04T04:19:29;7.00;99.90
15103;DHT22;7652;53.584;9.998;2023-03-04T04:22:33;7.00;99.90
15103;DHT22;7652;53.584;9.998;2023-03-04T04:25:36;7.00;99.90
15103;DHT22;7652;53.584;9.998;2023-03-04T04:28:40;7.00;99.90
15103;DHT22;7652;53.584;9.998;2023-03-04T04:31:43;7.10;99.90
15103;DHT22;7652;53.584;9.998;2023-03-04T04:34:47;7.10;99.90
15103;DHT22;7652;53.584;9.998;2023-03-04T04:37:50;7.10;99.90
15103;DHT22;7652;53.584;9.998;2023-03-04T04:40:55;7.10;99.90
15103;DHT22;7652;53.584;9.998;2023-03-04T04:43:59;7.20;99.90
15103;DHT22;7652;53.584;9.998;2023-03-04T04:47:02;7.20;99.90
15103;DHT22;7652;53.584;9.998;2023-03-04T04:50:05;7.20;99.90
15103;DHT22;7652;53.584;9.998;2023-03-04T04:53:11;7.20;99.90
15103;DHT22;7652;53.584;9.998;2023-03-04T04:56:15;7.20;99.90
15103;DHT22;7652;53.584;9.998;2023-03-04T04:59:20;7.30;99.90
15103;DHT22;7652;53.584;9.998;2023-03-04T05:02:23;7.30;99.90
15103;DHT22;7652;53.584;9.998;2023-03-04T05:05:26;7.30;99.90
15103;DHT22;7652;53.584;9.998;2023-03-04T05:08:29;7.30;99.90
15103;DHT22;7652;53.584;9.998;2023-03-04T05:11:32;7.20;99.90
15103;DHT22;7652;53.584;9.998;2023-03-04T05:14:37;7.20;99.90
15103;DHT22;7652;53.584;9.998;2023-03-04T05:17:40;7.20;99.90
15103;DHT22;7652;53.584;9.998;2023-03-04T05:20:42;7.20;99.90
15103;DHT22;7652;53.584;9.998;2023-03-04T05:23:45;7.20;99.90
15103;DHT22;7652;53.584;9.998;2023-03-04T05:26:48;7.20;99.90
15103;DHT22;7652;53.584;9.998;2023-03-04T05:29:53;7.20;99.90
15103;DHT22;7652;53.584;9.998;2023-03-04T05:32:56;7.20;99.90
15103;DHT22;7652;53.584;9.998;2023-03-04T05:35:59;7.10;99.90
15103;DHT22;7652;53.584;9.998;2023-03-04T05:39:02;7.00;99.90
15103;DHT22;7652;53.584;9.998;2023-03-04T05:42:05;7.00;99.90
15103;DHT22;7652;53.584;9.998;2023-03-04T05:45:10;7.00;99.90
15103;DHT22;7652;53.584;9.998;2023-03-04T05:48:13;7.00;99.90
15103;DHT22;7652;53.584;9.998;2023-03-04T05:51:16;7.00;99.90
15103;DHT22;7652;53.584;9.998;2023-03-04T05:54:19;7.00;99.90
15103;DHT22;7652;53.584;9.998;2023-03-04T05:57:22;6.90;99.90
15103;DHT22;7652;53.584;9.998;2023-03-04T06:00:27;6.90;99.90
15103;DHT22;7652;53.584;9.998;2023-03-04T06:03:30;6.90;99.90
15103;DHT22;7652;53.584;9.998;2023-03-04T06:06:33;6.90;99.90
15103;DHT22;7652;53.584;9.998;2023-03-04T06:09:36;6.90;99.90
15103;DHT22;7652;53.584;9.998;2023-03-04T06:12:39;6.90;99.90
15103;DHT22;7652;53.584;9.998;2023-03-04T06:15:43;7.00;99.90
15103;DHT22;7652;53.584;9.998;2023-03-04T06:18:46;7.00;99.90
15103;DHT22;7652;53.584;9.998;2023-03-04T06:21:49;6.90;99.90
15103;DHT22;7652;53.584;9.998;2023-03-04T06:24:52;7.00;99.90
15103;DHT22;7652;53.584;9.998;2023-03-04T06:27:56;6.90;99.90
15103;DHT22;7652;53.584;9.998;2023-03-04T06:31:00;6.90;99.90
15103;DHT22;7652;53.584;9.998;2023-03-04T06:34:03;6.90;99.90
15103;DHT22;7652;53.584;9.998;2023-03-04T06:37:06;6.90;99.90
15103;DHT22;7652;53.584;9.998;2023-03-04T06:40:10;6.90;99.90
15103;DHT22;7652;53.584;9.998;2023-03-04T06:43:14;6.90;99.90
15103;DHT22;7652;53.584;9.998;2023-03-04T06:46:18;6.90;99.90
15103;DHT22;7652;53.584;9.998;2023-03-04T06:49:21;6.80;99.90
15103;DHT22;7652;53.584;9.998;2023-03-04T06:52:24;6.80;99.90
15103;DHT22;7652;53.584;9.998;2023-03-04T06:55:27;6.80;99.90
15103;DHT22;7652;53.584;9.998;2023-03-04T06:58:30;6.80;99.90
15103;DHT22;7652;53.584;9.998;2023-03-04T07:01:34;6.80;99.90
15103;DHT22;7652;53.584;9.998;2023-03-04T07:04:39;6.90;99.90
15103;DHT22;7652;53.584;9.998;2023-03-04T07:07:42;6.80;99.90
15103;DHT22;7652;53.584;9.998;2023-03-04T07:10:45;6.90;99.90
15103;DHT22;7652;53.584;9.998;2023-03-04T07:13:48;6.80;99.90
15103;DHT22;7652;53.584;9.998;2023-03-04T07:16:53;6.80;99.90
15103;DHT22;7652;53.584;9.998;2023-03-04T07:19:56;6.80;99.90
15103;DHT22;7652;53.584;9.998;2023-03-04T07:22:59;6.80;99.90
15103;DHT22;7652;53.584;9.998;2023-03-04T07:26:02;6.80;99.90
15103;DHT22;7652;53.584;9.998;2023-03-04T07:29:05;6.90;99.90
15103;DHT22;7652;53.584;9.998;2023-03-04T07:32:10;6.90;99.90
15103;DHT22;7652;53.584;9.998;2023-03-04T07:35:13;6.90;99.90
15103;DHT22;7652;53.584;9.998;2023-03-04T07:38:16;6.90;99.90
15103;DHT22;7652;53.584;9.998;2023-03-04T07:41:20;6.90;99.90
15103;DHT22;7652;53.584;9.998;2023-03-04T07:44:24;6.90;99.90
15103;DHT22;7652;53.584;9.998;2023-03-04T07:47:28;6.90;99.90
15103;DHT22;7652;53.584;9.998;2023-03-04T07:50:31;6.80;99.90
15103;DHT22;7652;53.584;9.998;2023-03-04T07:53:35;6.80;99.90
15103;DHT22;7652;53.584;9.998;2023-03-04T07:56:39;6.80;99.90
15103;DHT22;7652;53.584;9.998;2023-03-04T07:59:42;6.80;99.90
15103;DHT22;7652;53.584;9.998;2023-03-04T08:02:46;6.90;99.90
15103;DHT22;7652;53.584;9.998;2023-03-04T08:05:49;6.90;99.90
15103;DHT22;7652;53.584;9.998;2023-03-04T08:08:56;6.90;99.90
15103;DHT22;7652;53.584;9.998;2023-03-04T08:11:59;6.90;99.90
15103;DHT22;7652;53.584;9.998;2023-03-04T08:15:02;7.00;99.90
15103;DHT22;7652;53.584;9.998;2023-03-04T08:18:07;7.00;99.90
15103;DHT22;7652;53.584;9.998;2023-03-04T08:21:11;7.00;99.90
15103;DHT22;7652;53.584;9.998;2023-03-04T08:24:14;7.00;99.90
15103;DHT22;7652;53.584;9.998;2023-03-04T08:27:17;7.00;99.90
15103;DHT22;7652;53.584;9.998;2023-03-04T08:30:20;7.10;99.90
15103;DHT22;7652;53.584;9.998;2023-03-04T08:33:25;7.10;99.90
15103;DHT22;7652;53.584;9.998;2023-03-04T08:36:28;7.10;99.90
15103;DHT22;7652;53.584;9.998;2023-03-04T08:39:31;7.10;99.90
15103;DHT22;7652;53.584;9.998;2023-03-04T08:42:36;7.10;99.90
15103;DHT22;7652;53.584;9.998;2023-03-04T08:45:39;7.20;99.90
15103;DHT22;7652;53.584;9.998;2023-03-04T08:48:44;7.10;99.90
15103;DHT22;7652;53.584;9.998;2023-03-04T08:51:47;7.10;99.90
15103;DHT22;7652;53.584;9.998;2023-03-04T08:54:50;7.00;99.90
15103;DHT22;7652;53.584;9.998;2023-03-04T08:57:53;7.10;99.90
15103;DHT22;7652;53.584;9.998;2023-03-04T09:00:59;7.20;99.90
15103;DHT22;7652;53.584;9.998;2023-03-04T09:04:04;7.20;99.90
15103;DHT22;7652;53.584;9.998;2023-03-04T09:07:07;7.10;99.90
15103;DHT22;7652;53.584;9.998;2023-03-04T09:10:11;7.10;99.90
15103;DHT22;7652;53.584;9.998;2023-03-04T09:13:14;7.20;99.90
15103;DHT22;7652;53.584;9.998;2023-03-04T09:16:17;7.20;99.90
15103;DHT22;7652;53.584;9.998;2023-03-04T09:19:21;7.20;99.90
15103;DHT22;7652;53.584;9.998;2023-03-04T09:22:24;7.20;99.90
15103;DHT22;7652;53.584;9.998;2023-03-04T09:25:28;7.20;99.90
15103;DHT22;7652;53.584;9.998;2023-03-04T09:28:31;7.20;99.90
15103;DHT22;7652;53.584;9.998;2023-03-04T09:31:34;7.10;99.90
15103;DHT22;7652;53.584;9.998;2023-03-04T09:34:39;7.20;99.90
15103;DHT22;7652;53.584;9.998;2023-03-04T09:37:42;7.20;99.90
15103;DHT22;7652;53.584;9.998;2023-03-04T09:40:47;7.30;99.90
15103;DHT22;7652;53.584;9.998;2023-03-04T09:43:51;7.50;99.90
15103;DHT22;7652;53.584;9.998;2023-03-04T09:46:57;7.80;99.90
15103;DHT22;7652;53.584;9.998;2023-03-04T09:50:06;7.80;99.90
15103;DHT22;7652;53.584;9.998;2023-03-04T09:53:17;7.70;99.90
15103;DHT22;7652;53.584;9.998;2023-03-04T09:56:22;7.60;99.90
15103;DHT22;7652;53.584;9.998;2023-03-04T09:59:31;7.50;99.90
15103;DHT22;7652;53.584;9.998;2023-03-04T10:02:44;7.50;99.90
15103;DHT22;7652;53.584;9.998;2023-03-04T10:05:54;7.50;99.90
15103;DHT22;7652;53.584;9.998;2023-03-04T10:08:59;7.50;99.90
15103;DHT22;7652;53.584;9.998;2023-03-04T10:12:05;7.50;99.90
15103;DHT22;7652;53.584;9.998;2023-03-04T10:15:22;7.60;99.90
15103;DHT22;7652;53.584;9.998;2023-03-04T10:18:30;7.70;99.90
15103;DHT22;7652;53.584;9.998;2023-03-04T10:21:38;7.80;99.90
15103;DHT22;7652;53.584;9.998;2023-03-04T10:24:43;7.80;99.90
15103;DHT22;7652;53.584;9.998;2023-03-04T10:27:50;7.80;99.90
15103;DHT22;7652;53.584;9.998;2023-03-04T10:30:58;7.80;99.90
15103;DHT22;7652;53.584;9.998;2023-03-04T10:34:04;7.80;99.90
15103;DHT22;7652;53.584;9.998;2023-03-04T10:37:09;7.90;99.90
15103;DHT22;7652;53.584;9.998;2023-03-04T10:40:20;8.00;99.90
15103;DHT22;7652;53.584;9.998;2023-03-04T10:43:24;7.90;99.90
15103;DHT22;7652;53.584;9.998;2023-03-04T10:46:27;8.00;99.90
15103;DHT22;7652;53.584;9.998;2023-03-04T10:49:31;8.00;99.90
15103;DHT22;7652;53.584;9.998;2023-03-04T10:52:38;8.00;99.90
15103;DHT22;7652;53.584;9.998;2023-03-04T10:55:43;7.90;99.90
15103;DHT22;7652;53.584;9.998;2023-03-04T10:58:47;8.00;99.90
15103;DHT22;7652;53.584;9.998;2023-03-04T11:01:50;8.10;99.90
15103;DHT22;7652;53.584;9.998;2023-03-04T11:05:04;8.20;99.90
15103;DHT22;7652;53.584;9.998;2023-03-04T11:08:16;8.30;99.90
15103;DHT22;7652;53.584;9.998;2023-03-04T11:11:30;8.30;99.90
15103;DHT22;7652;53.584;9.998;2023-03-04T11:14:37;8.30;99.90
15103;DHT22;7652;53.584;9.998;2023-03-04T11:17:44;8.30;99.90
15103;DHT22;7652;53.584;9.998;2023-03-04T11:20:49;8.50;99.90
15103;DHT22;7652;53.584;9.998;2023-03-04T11:23:58;8.60;99.90
15103;DHT22;7652;53.584;9.998;2023-03-04T11:27:04;8.80;99.90
15103;DHT22;7652;53.584;9.998;2023-03-04T11:30:34;8.90;99.90
15103;DHT22;7652;53.584;9.998;2023-03-04T11:33:42;8.90;99.90
15103;DHT22;7652;53.584;9.998;2023-03-04T11:36:53;8.80;99.90
15103;DHT22;7652;53.584;9.998;2023-03-04T11:40:03;8.80;99.90
15103;DHT22;7652;53.584;9.998;2023-03-04T11:43:12;8.60;99.90
15103;DHT22;7652;53.584;9.998;2023-03-04T11:46:40;8.40;99.90
15103;DHT22;7652;53.584;9.998;2023-03-04T11:50:11;8.50;99.90
15103;DHT22;7652;53.584;9.998;2023-03-04T11:53:25;8.70;99.90
15103;DHT22;7652;53.584;9.998;2023-03-04T11:56:35;8.80;99.90
15103;DHT22;7652;53.584;9.998;2023-03-04T11:59:55;9.00;99.90
15103;DHT22;7652;53.584;9.998;2023-03-04T12:03:20;9.10;99.90
15103;DHT22;7652;53.584;9.998;2023-03-04T12:06:31;9.10;99.90
15103;DHT22;7652;53.584;9.998;2023-03-04T12:09:43;9.10;99.90
15103;DHT22;7652;53.584;9.998;2023-03-04T12:13:02;9.00;99.90
15103;DHT22;7652;53.584;9.998;2023-03-04T12:16:18;9.10;99.90
15103;DHT22;7652;53.584;9.998;2023-03-04T12:19:32;9.00;99.90
15103;DHT22;7652;53.584;9.998;2023-03-04T12:22:43;8.90;99.90
15103;DHT22;7652;53.584;9.998;2023-03-04T12:25:51;8.90;99.90
15103;DHT22;7652;53.584;9.998;2023-03-04T12:29:02;8.80;99.90
15103;DHT22;7652;53.584;9.998;2023-03-04T12:32:11;8.80;99.90
15103;DHT22;7652;53.584;9.998;2023-03-04T12:35:26;8.90;99.90
15103;DHT22;7652;53.584;9.998;2023-03-04T12:38:48;8.90;99.90
15103;DHT22;7652;53.584;9.998;2023-03-04T12:42:01;8.90;99.90
15103;DHT22;7652;53.584;9.998;2023-03-04T12:45:17;8.70;99.90
15103;DHT22;7652;53.584;9.998;2023-03-04T12:48:29;8.60;99.90
15103;DHT22;7652;53.584;9.998;2023-03-04T12:51:39;8.50;99.90
15103;DHT22;7652;53.584;9.998;2023-03-04T12:54:48;8.50;99.90
15103;DHT22;7652;53.584;9.998;2023-03-04T12:57:54;9.70;99.90
15103;DHT22;7652;53.584;9.998;2023-03-04T13:01:05;10.30;99.90
15103;DHT22;7652;53.584;9.998;2023-03-04T13:04:14;10.10;99.90
15103;DHT22;7652;53.584;9.998;2023-03-04T13:07:23;9.90;99.90
15103;DHT22;7652;53.584;9.998;2023-03-04T13:10:30;9.60;99.90
15103;DHT22;7652;53.584;9.998;2023-03-04T13:13:36;9.30;99.90
15103;DHT22;7652;53.584;9.998;2023-03-04T13:16:43;9.20;99.90
15103;DHT22;7652;53.584;9.998;2023-03-04T13:19:49;9.20;99.90
15103;DHT22;7652;53.584;9.998;2023-03-04T13:22:55;9.10;99.90
15103;DHT22;7652;53.584;9.998;2023-03-04T13:26:22;9.10;99.90
15103;DHT22;7652;53.584;9.998;2023-03-04T13:29:33;9.40;99.90
15103;DHT22;7652;53.584;9.998;2023-03-04T13:32:39;9.80;99.90
15103;DHT22;7652;53.584;9.998;2023-03-04T13:35:49;10.00;99.90
15103;DHT22;7652;53.584;9.998;2023-03-04T13:38:58;9.80;99.90
15103;DHT22;7652;53.584;9.998;2023-03-04T13:42:04;9.50;99.90
15103;DHT22;7652;53.584;9.998;2023-03-04T13:45:33;9.30;99.90
15103;DHT22;7652;53.584;9.998;2023-03-04T13:48:37;9.20;99.90
15103;DHT22;7652;53.584;9.998;2023-03-04T13:51:42;9.10;99.90
15103;DHT22;7652;53.584;9.998;2023-03-04T13:54:46;9.10;99.90
15103;DHT22;7652;53.584;9.998;2023-03-04T13:57:50;9.10;99.90
15103;DHT22;7652;53.584;9.998;2023-03-04T14:00:54;9.30;99.90
15103;DHT22;7652;53.584;9.998;2023-03-04T14:04:00;9.40;99.90
15103;DHT22;7652;53.584;9.998;2023-03-04T14:07:17;9.30;99.90
15103;DHT22;7652;53.584;9.998;2023-03-04T14:10:23;9.10;99.90
15103;DHT22;7652;53.584;9.998;2023-03-04T14:13:26;9.00;99.90
15103;DHT22;7652;53.584;9.998;2023-03-04T14:16:32;8.90;99.90
15103;DHT22;7652;53.584;9.998;2023-03-04T14:19:43;8.90;99.90
15103;DHT22;7652;53.584;9.998;2023-03-04T14:22:47;8.80;99.90
15103;DHT22;7652;53.584;9.998;2023-03-04T14:25:50;8.90;99.90
15103;DHT22;7652;53.584;9.998;2023-03-04T14:28:53;9.00;99.90
15103;DHT22;7652;53.584;9.998;2023-03-04T14:31:59;9.10;99.90
15103;DHT22;7652;53.584;9.998;2023-03-04T14:35:07;9.00;99.90
15103;DHT22;7652;53.584;9.998;2023-03-04T14:38:23;9.00;99.90
15103;DHT22;7652;53.584;9.998;2023-03-04T14:41:28;8.80;99.90
15103;DHT22;7652;53.584;9.998;2023-03-04T14:44:35;8.60;99.90
15103;DHT22;7652;53.584;9.998;2023-03-04T14:47:40;8.50;99.90
15103;DHT22;7652;53.584;9.998;2023-03-04T14:50:51;8.40;99.90
15103;DHT22;7652;53.584;9.998;2023-03-04T14:53:55;8.20;99.90
15103;DHT22;7652;53.584;9.998;2023-03-04T14:57:00;8.10;99.90
15103;DHT22;7652;53.584;9.998;2023-03-04T15:00:14;8.10;99.90
15103;DHT22;7652;53.584;9.998;2023-03-04T15:03:20;8.00;99.90
15103;DHT22;7652;53.584;9.998;2023-03-04T15:06:27;7.90;99.90
15103;DHT22;7652;53.584;9.998;2023-03-04T15:09:31;8.00;99.90
15103;DHT22;7652;53.584;9.998;2023-03-04T15:12:35;8.00;99.90
15103;DHT22;7652;53.584;9.998;2023-03-04T15:15:42;7.90;99.90
15103;DHT22;7652;53.584;9.998;2023-03-04T15:18:58;7.70;99.90
15103;DHT22;7652;53.584;9.998;2023-03-04T15:22:06;7.60;99.90
15103;DHT22;7652;53.584;9.998;2023-03-04T15:25:11;7.60;99.90
15103;DHT22;7652;53.584;9.998;2023-03-04T15:28:17;7.50;99.90
15103;DHT22;7652;53.584;9.998;2023-03-04T15:31:22;7.50;99.90
15103;DHT22;7652;53.584;9.998;2023-03-04T15:34:26;7.40;99.90
15103;DHT22;7652;53.584;9.998;2023-03-04T15:37:31;7.40;99.90
15103;DHT22;7652;53.584;9.998;2023-03-04T15:40:36;7.30;99.90
15103;DHT22;7652;53.584;9.998;2023-03-04T15:43:40;7.30;99.90
15103;DHT22;7652;53.584;9.998;2023-03-04T15:46:43;7.30;99.90
15103;DHT22;7652;53.584;9.998;2023-03-04T15:49:47;7.20;99.90
15103;DHT22;7652;53.584;9.998;2023-03-04T15:52:51;7.20;99.90
15103;DHT22;7652;53.584;9.998;2023-03-04T15:55:55;7.10;99.90
15103;DHT22;7652;53.584;9.998;2023-03-04T15:59:02;7.10;99.90
15103;DHT22;7652;53.584;9.998;2023-03-04T16:02:10;7.20;99.90
15103;DHT22;7652;53.584;9.998;2023-03-04T16:05:17;7.30;99.90
15103;DHT22;7652;53.584;9.998;2023-03-04T16:08:23;7.30;99.90
15103;DHT22;7652;53.584;9.998;2023-03-04T16:11:29;7.20;99.90
15103;DHT22;7652;53.584;9.998;2023-03-04T16:14:34;7.20;99.90
15103;DHT22;7652;53.584;9.998;2023-03-04T16:17:37;7.20;99.90
15103;DHT22;7652;53.584;9.998;2023-03-04T16:20:45;7.20;99.90
15103;DHT22;7652;53.584;9.998;2023-03-04T16:23:51;7.10;99.90
15103;DHT22;7652;53.584;9.998;2023-03-04T16:26:55;7.00;99.90
15103;DHT22;7652;53.584;9.998;2023-03-04T16:29:58;6.90;99.90
15103;DHT22;7652;53.584;9.998;2023-03-04T16:33:01;7.00;99.90
15103;DHT22;7652;53.584;9.998;2023-03-04T16:36:12;6.90;99.90
15103;DHT22;7652;53.584;9.998;2023-03-04T16:39:19;6.80;99.90
15103;DHT22;7652;53.584;9.998;2023-03-04T16:42:23;6.80;99.90
15103;DHT22;7652;53.584;9.998;2023-03-04T16:45:27;6.70;99.90
15103;DHT22;7652;53.584;9.998;2023-03-04T16:48:31;6.70;99.90
15103;DHT22;7652;53.584;9.998;2023-03-04T16:51:39;6.70;99.90
15103;DHT22;7652;53.584;9.998;2023-03-04T16:54:46;6.60;99.90
15103;DHT22;7652;53.584;9.998;2023-03-04T16:57:49;6.50;99.90
15103;DHT22;7652;53.584;9.998;2023-03-04T17:00:53;6.40;99.90
15103;DHT22;7652;53.584;9.998;2023-03-04T17:03:56;6.50;99.90
15103;DHT22;7652;53.584;9.998;2023-03-04T17:06:59;6.50;99.90
15103;DHT22;7652;53.584;9.998;2023-03-04T17:10:05;6.40;99.90
15103;DHT22;7652;53.584;9.998;2023-03-04T17:13:08;6.40;99.90
15103;DHT22;7652;53.584;9.998;2023-03-04T17:16:11;6.30;99.90
15103;DHT22;7652;53.584;9.998;2023-03-04T17:19:16;6.30;99.90
15103;DHT22;7652;53.584;9.998;2023-03-04T17:22:19;6.30;99.90
15103;DHT22;7652;53.584;9.998;2023-03-04T17:25:23;6.20;99.90
15103;DHT22;7652;53.584;9.998;2023-03-04T17:28:26;6.20;99.90
15103;DHT22;7652;53.584;9.998;2023-03-04T17:31:29;6.20;99.90
15103;DHT22;7652;53.584;9.998;2023-03-04T17:34:32;6.20;99.90
15103;DHT22;7652;53.584;9.998;2023-03-04T17:37:36;6.20;99.90
15103;DHT22;7652;53.584;9.998;2023-03-04T17:40:41;6.10;99.90
15103;DHT22;7652;53.584;9.998;2023-03-04T17:43:45;6.10;99.90
15103;DHT22;7652;53.584;9.998;2023-03-04T17:46:48;6.00;99.90
15103;DHT22;7652;53.584;9.998;2023-03-04T17:49:52;6.10;99.90
15103;DHT22;7652;53.584;9.998;2023-03-04T17:52:54;6.00;99.90
15103;DHT22;7652;53.584;9.998;2023-03-04T17:56:01;6.00;99.90
15103;DHT22;7652;53.584;9.998;2023-03-04T17:59:06;5.90;99.90
15103;DHT22;7652;53.584;9.998;2023-03-04T18:02:13;5.90;99.90
15103;DHT22;7652;53.584;9.998;2023-03-04T18:05:17;5.90;99.90
15103;DHT22;7652;53.584;9.998;2023-03-04T18:08:20;5.80;99.90
15103;DHT22;7652;53.584;9.998;2023-03-04T18:11:26;5.80;99.90
15103;DHT22;7652;53.584;9.998;2023-03-04T18:14:30;5.80;99.90
15103;DHT22;7652;53.584;9.998;2023-03-04T18:17:33;5.70;99.90
15103;DHT22;7652;53.584;9.998;2023-03-04T18:20:36;5.70;99.90
15103;DHT22;7652;53.584;9.998;2023-03-04T18:23:39;5.70;99.90
15103;DHT22;7652;53.584;9.998;2023-03-04T18:26:43;5.60;99.90
15103;DHT22;7652;53.584;9.998;2023-03-04T18:29:46;5.60;99.90
15103;DHT22;7652;53.584;9.998;2023-03-04T18:32:49;5.50;99.90
15103;DHT22;7652;53.584;9.998;2023-03-04T18:35:57;5.60;99.90
15103;DHT22;7652;53.584;9.998;2023-03-04T18:39:00;5.60;99.90
15103;DHT22;7652;53.584;9.998;2023-03-04T18:42:07;5.50;99.90
15103;DHT22;7652;53.584;9.998;2023-03-04T18:45:10;5.50;99.90
15103;DHT22;7652;53.584;9.998;2023-03-04T18:48:14;5.40;99.90
15103;DHT22;7652;53.584;9.998;2023-03-04T18:51:17;5.40;99.90
15103;DHT22;7652;53.584;9.998;2023-03-04T18:54:21;5.50;99.90
15103;DHT22;7652;53.584;9.998;2023-03-04T18:57:25;5.40;99.90
15103;DHT22;7652;53.584;9.998;2023-03-04T19:00:28;5.40;99.90
15103;DHT22;7652;53.584;9.998;2023-03-04T19:03:32;5.20;99.90
15103;DHT22;7652;53.584;9.998;2023-03-04T19:06:37;5.30;99.90
15103;DHT22;7652;53.584;9.998;2023-03-04T19:09:41;5.20;99.90
15103;DHT22;7652;53.584;9.998;2023-03-04T19:12:45;5.20;99.90
15103;DHT22;7652;53.584;9.998;2023-03-04T19:15:48;5.10;99.90
15103;DHT22;7652;53.584;9.998;2023-03-04T19:18:52;5.10;99.90
15103;DHT22;7652;53.584;9.998;2023-03-04T19:21:55;5.10;99.90
15103;DHT22;7652;53.584;9.998;2023-03-04T19:24:59;5.10;99.90
15103;DHT22;7652;53.584;9.998;2023-03-04T19:28:04;5.00;99.90
15103;DHT22;7652;53.584;9.998;2023-03-04T19:31:08;4.90;99.90
15103;DHT22;7652;53.584;9.998;2023-03-04T19:34:12;4.80;99.90
15103;DHT22;7652;53.584;9.998;2023-03-04T19:37:15;4.80;99.90
15103;DHT22;7652;53.584;9.998;2023-03-04T19:40:18;4.90;99.90
15103;DHT22;7652;53.584;9.998;2023-03-04T19:43:23;4.90;99.90
15103;DHT22;7652;53.584;9.998;2023-03-04T19:46:26;4.90;99.90
15103;DHT22;7652;53.584;9.998;2023-03-04T19:49:30;5.00;99.90
15103;DHT22;7652;53.584;9.998;2023-03-04T19:52:33;5.00;99.90
15103;DHT22;7652;53.584;9.998;2023-03-04T19:55:36;5.00;99.90
15103;DHT22;7652;53.584;9.998;2023-03-04T19:58:41;5.00;99.90
15103;DHT22;7652;53.584;9.998;2023-03-04T20:01:44;4.90;99.90
15103;DHT22;7652;53.584;9.998;2023-03-04T20:04:48;4.80;99.90
15103;DHT22;7652;53.584;9.998;2023-03-04T20:07:51;4.80;99.90
15103;DHT22;7652;53.584;9.998;2023-03-04T20:10:54;4.80;99.90